Time;durP1;ratioP1;P1;durP2;ratioP2;P2;SDS_P1;SDS_P2;PMS_P1;PMS_P2;Temp;Humidity;BMP_temperature;BMP_pressure;BME280_temperature;BME280_humidity;BME280_pressure;Samples;Min_cycle;Max_cycle;Signal;HPM_P1;HPM_P2
2023/02/28 00:01:31;;;;;;;10.20;6.50;;;;;;;-1.67;85.72;96341.56;106594;1275;22738;-74
2023/02/28 00:04:00;;;;;;;11.80;6.50;;;;;;;-1.71;85.74;96346.42;106665;1275;22529;-74
2023/02/28 00:06:28;;;;;;;9.20;5.60;;;;;;;-1.73;85.73;96347.38;106560;1257;22534;-74
2023/02/28 00:08:56;;;;;;;8.30;4.90;;;;;;;-1.75;85.86;96347.83;106585;1275;25318;-74
2023/02/28 00:11:24;;;;;;;8.90;5.70;;;;;;;-1.80;85.85;96354.34;106567;1268;22544;-74
2023/02/28 00:13:52;;;;;;;9.30;6.30;;;;;;;-1.81;86.10;96360.67;106568;1275;22642;-71
2023/02/28 00:16:22;;;;;;;13.30;7.50;;;;;;;-1.79;85.93;96364.21;106590;1275;25400;-74
2023/02/28 00:18:51;;;;;;;12.40;7.10;;;;;;;-1.74;86.00;96362.33;106610;1275;24350;-73
2023/02/28 00:21:19;;;;;;;14.00;7.40;;;;;;;-1.70;86.06;96368.67;106718;1275;22569;-74
2023/02/28 00:23:48;;;;;;;11.70;6.90;;;;;;;-1.65;86.15;96365.84;106668;1275;22778;-74
2023/02/28 00:26:17;;;;;;;8.70;5.90;;;;;;;-1.60;86.07;96364.13;106586;1275;22935;-74
2023/02/28 00:28:48;;;;;;;8.50;5.80;;;;;;;-1.56;85.93;96364.80;106631;1275;25471;-74
2023/02/28 00:31:16;;;;;;;10.70;7.00;;;;;;;-1.49;86.09;96365.58;106580;1275;25362;-73
2023/02/28 00:33:44;;;;;;;10.70;6.50;;;;;;;-1.44;85.97;96368.38;106589;1275;22527;-74
2023/02/28 00:36:15;;;;;;;10.60;6.60;;;;;;;-1.40;85.71;96370.60;106610;1275;24222;-74
2023/02/28 00:38:43;;;;;;;10.00;6.30;;;;;;;-1.33;85.84;96365.36;106599;1275;22544;-74
2023/02/28 00:41:11;;;;;;;9.20;6.20;;;;;;;-1.26;85.47;96365.83;106599;1275;22537;-74
2023/02/28 00:43:40;;;;;;;11.80;7.10;;;;;;;-1.24;85.00;96357.59;106666;1275;25500;-74
2023/02/28 00:46:08;;;;;;;10.60;6.60;;;;;;;-1.22;85.01;96358.90;106728;1275;24380;-74
2023/02/28 00:48:36;;;;;;;12.10;7.50;;;;;;;-1.25;84.70;96360.86;106593;1275;25722;-74
2023/02/28 00:51:05;;;;;;;10.70;7.40;;;;;;;-1.21;85.15;96362.54;106445;1275;22565;-73
2023/02/28 00:53:33;;;;;;;9.70;6.40;;;;;;;-1.19;84.96;96360.38;106686;1275;22633;-74
2023/02/28 00:56:02;;;;;;;11.00;6.90;;;;;;;-1.25;84.36;96363.77;106552;1275;22525;-73
2023/02/28 00:58:32;;;;;;;9.10;6.10;;;;;;;-1.30;84.58;96365.65;106649;1268;22542;-74
2023/02/28 01:01:00;;;;;;;11.70;6.60;;;;;;;-1.33;84.58;96364.51;106579;1275;25325;-74
2023/02/28 01:03:28;;;;;;;29.90;17.30;;;;;;;-1.36;84.64;96370.40;106562;1275;22771;-74
2023/02/28 01:05:57;;;;;;;14.10;9.00;;;;;;;-1.40;84.72;96366.64;106673;1275;22738;-74
2023/02/28 01:08:26;;;;;;;7.80;4.90;;;;;;;-1.42;84.79;96360.50;106925;1275;25236;-74
2023/02/28 01:10:55;;;;;;;10.60;7.10;;;;;;;-1.52;84.84;96366.36;106590;1266;22522;-74
2023/02/28 01:13:23;;;;;;;18.30;11.50;;;;;;;-1.57;85.01;96367.70;106678;1275;25437;-74
2023/02/28 01:15:55;;;;;;;11.10;7.00;;;;;;;-1.61;85.03;96375.46;106692;1275;24234;-74
2023/02/28 01:18:25;;;;;;;12.10;8.10;;;;;;;-1.63;85.24;96377.95;106585;1275;25400;-74
2023/02/28 01:20:53;;;;;;;12.90;8.20;;;;;;;-1.66;85.44;96370.94;106585;1275;26634;-74
2023/02/28 01:23:23;;;;;;;15.00;9.70;;;;;;;-1.68;85.52;96367.41;106597;1275;22532;-74
2023/02/28 01:25:52;;;;;;;12.90;8.20;;;;;;;-1.69;85.54;96365.46;106580;1275;25288;-74
2023/02/28 01:28:20;;;;;;;16.40;8.50;;;;;;;-1.72;85.58;96368.61;106655;1275;24421;-74
2023/02/28 01:30:50;;;;;;;15.80;9.10;;;;;;;-1.74;85.56;96370.60;106588;1275;24391;-74
2023/02/28 01:33:19;;;;;;;29.20;16.50;;;;;;;-1.77;85.44;96370.67;106623;1275;22555;-74
2023/02/28 01:35:47;;;;;;;17.70;10.80;;;;;;;-1.78;85.18;96378.40;106603;1275;24347;-74
2023/02/28 01:38:15;;;;;;;21.10;12.20;;;;;;;-1.78;85.31;96385.64;106625;1275;25234;-74
2023/02/28 01:40:50;;;;;;;21.00;12.40;;;;;;;-1.83;86.06;96386.64;106629;1275;22534;-74
2023/02/28 01:43:26;;;;;;;23.80;13.30;;;;;;;-1.81;86.31;96389.30;106664;1275;22543;-74
2023/02/28 01:45:57;;;;;;;32.50;18.60;;;;;;;-1.77;86.60;96389.98;106571;1275;22522;-74
2023/02/28 01:48:33;;;;;;;29.00;16.70;;;;;;;-1.75;86.65;96392.33;106620;1253;22529;-74
2023/02/28 01:51:08;;;;;;;24.90;14.90;;;;;;;-1.68;86.51;96400.53;106662;1275;22536;-74
2023/02/28 01:53:45;;;;;;;24.10;14.30;;;;;;;-1.66;86.50;96397.89;106608;1275;22526;-73
2023/02/28 01:56:22;;;;;;;18.30;10.50;;;;;;;-1.63;86.35;96392.45;106595;1275;24389;-74
2023/02/28 01:58:52;;;;;;;22.10;12.30;;;;;;;-1.63;86.07;96397.46;106637;1275;24078;-74
2023/02/28 02:01:22;;;;;;;22.60;12.30;;;;;;;-1.58;86.30;96401.27;106466;1275;22672;-74
2023/02/28 02:03:57;;;;;;;18.40;10.30;;;;;;;-1.51;86.49;96401.73;106892;1275;22668;-74
2023/02/28 02:06:31;;;;;;;18.70;10.50;;;;;;;-1.46;86.49;96402.64;106897;1275;22586;-74
2023/02/28 02:09:00;;;;;;;20.00;10.70;;;;;;;-1.39;86.61;96401.20;106613;1275;22614;-74
2023/02/28 02:11:29;;;;;;;22.50;11.80;;;;;;;-1.29;86.82;96396.92;106571;1275;22804;-74
2023/02/28 02:14:04;;;;;;;22.40;10.80;;;;;;;-1.20;86.49;96396.77;106571;1275;22542;-74
2023/02/28 02:16:47;;;;;;;19.10;10.20;;;;;;;-1.15;86.07;96394.40;106602;1275;24212;-74
2023/02/28 02:20:03;;;;;;;15.20;9.50;;;;;;;-1.14;85.44;96387.89;106620;1275;22649;-74
2023/02/28 02:22:50;;;;;;;18.00;10.00;;;;;;;-1.07;85.83;96387.27;106878;1275;22592;-74
2023/02/28 02:25:40;;;;;;;16.10;9.10;;;;;;;-1.07;85.19;96389.33;106583;1275;23011;-74
2023/02/28 02:28:36;;;;;;;13.40;7.70;;;;;;;-1.05;85.30;96380.09;106767;1275;25397;-74
2023/02/28 02:31:13;;;;;;;13.10;7.30;;;;;;;-1.11;84.70;96369.86;106722;1275;24201;-74
2023/02/28 02:34:00;;;;;;;9.10;5.70;;;;;;;-1.21;84.60;96370.31;106640;1275;22639;-74
2023/02/28 02:36:35;;;;;;;9.20;5.90;;;;;;;-1.31;84.60;96372.34;106615;1275;25316;-74
2023/02/28 02:39:16;;;;;;;7.50;5.30;;;;;;;-1.38;84.74;96372.93;106620;1275;25318;-74
2023/02/28 02:41:54;;;;;;;7.60;5.40;;;;;;;-1.45;85.11;96365.92;106575;1275;25479;-74
2023/02/28 02:44:44;;;;;;;9.30;6.00;;;;;;;-1.47;85.08;96370.66;106475;1275;26669;-74
2023/02/28 02:47:17;;;;;;;77.10;35.60;;;;;;;-1.51;84.89;96397.79;106625;1275;22639;-74
2023/02/28 02:49:57;;;;;;;65.50;32.60;;;;;;;-1.61;85.09;96407.91;106610;1275;24454;-74
2023/02/28 02:52:35;;;;;;;47.50;26.40;;;;;;;-1.63;85.16;96414.36;106605;1275;22546;-74
2023/02/28 02:55:07;;;;;;;12.50;8.20;;;;;;;-1.67;85.37;96411.60;106634;1275;22540;-74
2023/02/28 02:57:43;;;;;;;12.70;6.90;;;;;;;-1.74;85.47;96402.71;106474;1275;22592;-74
2023/02/28 03:00:14;;;;;;;9.60;6.20;;;;;;;-1.79;85.92;96394.38;106605;1275;24200;-74
2023/02/28 03:02:44;;;;;;;10.60;5.90;;;;;;;-1.80;86.10;96393.31;106663;1275;25332;-74
2023/02/28 03:05:19;;;;;;;7.90;5.80;;;;;;;-1.79;86.14;96390.63;106639;1275;25334;-74
2023/02/28 03:07:47;;;;;;;7.70;5.20;;;;;;;-1.78;85.93;96391.14;106602;1275;22776;-74
2023/02/28 03:10:30;;;;;;;8.00;5.40;;;;;;;-1.80;85.98;96380.55;106556;1275;24273;-74
2023/02/28 03:13:27;;;;;;;7.50;5.20;;;;;;;-1.82;85.83;96379.79;106653;1275;25413;-74
2023/02/28 03:16:09;;;;;;;7.40;5.40;;;;;;;-1.87;85.91;96384.73;106428;1275;22535;-74
2023/02/28 03:19:17;;;;;;;8.40;5.30;;;;;;;-1.87;85.88;96398.04;106597;1275;24300;-74
2023/02/28 03:22:11;;;;;;;12.10;7.20;;;;;;;-1.86;85.96;96405.66;106515;1253;22601;-74
2023/02/28 03:24:49;;;;;;;12.70;7.90;;;;;;;-1.82;85.67;96411.88;106624;1275;24255;-74
2023/02/28 03:27:30;;;;;;;14.40;8.80;;;;;;;-1.79;85.71;96407.30;106642;1275;22530;-74
2023/02/28 03:30:06;;;;;;;14.10;7.60;;;;;;;-1.78;86.02;96409.29;106629;1275;22769;-74
2023/02/28 03:32:54;;;;;;;17.90;9.50;;;;;;;-1.74;86.33;96411.50;106599;1275;23151;-74
2023/02/28 03:35:32;;;;;;;17.30;9.90;;;;;;;-1.66;86.49;96402.34;106105;1253;659331;-74
2023/02/28 03:38:09;;;;;;;12.20;7.80;;;;;;;-1.59;86.40;96399.69;106603;1275;22646;-74
2023/02/28 03:40:39;;;;;;;9.70;6.20;;;;;;;-1.54;86.04;96395.08;106636;1275;22530;-74
2023/02/28 03:43:14;;;;;;;11.40;7.00;;;;;;;-1.50;85.93;96398.86;106611;1275;24381;-74
2023/02/28 03:45:44;;;;;;;10.00;6.70;;;;;;;-1.49;85.59;96397.50;106609;1275;25239;-74
2023/02/28 03:48:23;;;;;;;9.10;6.40;;;;;;;-1.50;85.35;96400.91;106588;1275;24429;-74
2023/02/28 03:50:59;;;;;;;15.90;10.20;;;;;;;-1.49;85.63;96408.36;106604;1275;22522;-74
2023/02/28 03:53:35;;;;;;;13.30;8.70;;;;;;;-1.49;85.45;96409.92;106610;1275;25319;-74
2023/02/28 03:56:13;;;;;;;19.30;11.70;;;;;;;-1.44;85.98;96407.02;106635;1275;22530;-74
2023/02/28 03:59:00;;;;;;;12.30;7.90;;;;;;;-1.35;85.63;96399.12;106680;1275;22797;-74
2023/02/28 04:01:42;;;;;;;11.80;7.20;;;;;;;-1.33;85.45;96397.11;106606;1275;22807;-74
2023/02/28 04:04:12;;;;;;;11.30;7.00;;;;;;;-1.29;85.41;96396.25;106636;1252;22529;-74
2023/02/28 04:06:41;;;;;;;10.90;7.40;;;;;;;-1.26;85.44;96393.95;106608;1275;24385;-74
2023/02/28 04:09:12;;;;;;;12.10;7.90;;;;;;;-1.26;85.05;96392.39;106625;1275;24047;-74
2023/02/28 04:11:43;;;;;;;33.80;20.60;;;;;;;-1.23;85.50;96391.80;106547;1275;25477;-75
2023/02/28 04:14:12;;;;;;;23.10;16.50;;;;;;;-1.19;85.31;96400.95;106565;1275;22631;-74
2023/02/28 04:16:42;;;;;;;24.50;21.00;;;;;;;-1.19;85.20;96404.42;106633;1275;25329;-74
2023/02/28 04:19:11;;;;;;;20.20;16.20;;;;;;;-1.25;84.81;96407.12;106658;1275;22692;-74
2023/02/28 04:21:42;;;;;;;14.50;9.60;;;;;;;-1.32;84.74;96412.70;106595;1275;24252;-74
2023/02/28 04:24:14;;;;;;;11.60;8.10;;;;;;;-1.34;85.01;96419.33;106615;1275;24063;-74
2023/02/28 04:26:46;;;;;;;47.00;31.70;;;;;;;-1.36;85.02;96422.89;106586;1275;25354;-73
2023/02/28 04:29:20;;;;;;;85.10;50.50;;;;;;;-1.39;84.95;96422.44;106611;1275;25378;-74
2023/02/28 04:31:48;;;;;;;51.60;33.40;;;;;;;-1.44;84.93;96415.13;106628;1275;23750;-74
2023/02/28 04:34:18;;;;;;;25.20;16.10;;;;;;;-1.52;84.95;96409.29;106497;1275;22774;-74
2023/02/28 04:36:53;;;;;;;22.60;14.40;;;;;;;-1.55;85.30;96414.53;106626;1275;22792;-74
2023/02/28 04:39:39;;;;;;;20.00;11.70;;;;;;;-1.58;85.38;96406.63;106603;1275;22543;-74
2023/02/28 04:42:09;;;;;;;30.20;22.50;;;;;;;-1.63;85.54;96406.96;106644;1275;25278;-74
2023/02/28 04:44:37;;;;;;;23.20;14.90;;;;;;;-1.65;85.71;96408.07;106583;1275;22530;-74
2023/02/28 04:47:06;;;;;;;20.20;12.00;;;;;;;-1.71;85.73;96404.73;106581;1275;25465;-74
2023/02/28 04:49:34;;;;;;;19.60;11.50;;;;;;;-1.78;86.06;96404.27;106623;1275;24370;-74
2023/02/28 04:52:02;;;;;;;16.80;10.30;;;;;;;-1.84;86.02;96405.42;106733;1275;22531;-74
2023/02/28 04:54:30;;;;;;;13.40;8.00;;;;;;;-1.88;86.27;96411.93;106577;1275;22566;-74
2023/02/28 04:56:58;;;;;;;15.80;8.20;;;;;;;-1.94;86.23;96413.09;106613;1275;25406;-74
2023/02/28 04:59:27;;;;;;;14.00;8.20;;;;;;;-1.99;86.68;96414.60;106617;1275;24229;-74
2023/02/28 05:01:55;;;;;;;14.10;8.30;;;;;;;-2.03;87.04;96412.88;106637;1275;24334;-74
2023/02/28 05:04:23;;;;;;;15.10;8.20;;;;;;;-2.07;86.92;96408.91;106595;1275;25227;-74
2023/02/28 05:06:51;;;;;;;15.90;8.40;;;;;;;-2.12;86.97;96405.08;106570;1275;22531;-74
2023/02/28 05:09:19;;;;;;;15.00;7.60;;;;;;;-2.15;87.44;96405.80;106597;1275;22624;-74
2023/02/28 05:11:47;;;;;;;17.90;8.90;;;;;;;-2.22;86.71;96407.41;106561;1275;22636;-74
2023/02/28 05:14:15;;;;;;;20.70;10.50;;;;;;;-2.28;86.57;96403.70;106591;1275;25475;-74
2023/02/28 05:16:43;;;;;;;33.70;18.30;;;;;;;-2.28;86.81;96408.16;106619;1275;25281;-74
2023/02/28 05:19:11;;;;;;;45.80;24.40;;;;;;;-2.28;87.28;96411.27;106601;1275;25525;-75
2023/02/28 05:21:47;;;;;;;23.00;11.60;;;;;;;-2.28;87.26;96411.63;106568;1275;24249;-75
2023/02/28 05:24:22;;;;;;;22.00;11.50;;;;;;;-2.27;87.05;96416.33;106626;1275;22977;-75
2023/02/28 05:26:53;;;;;;;23.40;11.70;;;;;;;-2.27;87.05;96407.85;106642;1275;22667;-75
2023/02/28 05:29:21;;;;;;;28.40;14.40;;;;;;;-2.23;87.36;96414.09;106579;1275;22525;-75
2023/02/28 05:31:50;;;;;;;23.10;12.90;;;;;;;-2.18;87.35;96414.30;106639;1275;24783;-75
2023/02/28 05:34:18;;;;;;;26.20;14.40;;;;;;;-2.13;87.09;96419.50;106587;1275;22527;-75
2023/02/28 05:36:46;;;;;;;29.00;15.60;;;;;;;-2.12;86.78;96429.89;106575;1275;22686;-76
2023/02/28 05:39:14;;;;;;;28.20;16.00;;;;;;;-2.10;86.64;96434.27;106609;1275;22534;-76
2023/02/28 05:41:43;;;;;;;45.60;25.70;;;;;;;-2.05;87.16;96430.55;106589;1274;22658;-76
2023/02/28 05:44:12;;;;;;;46.20;26.10;;;;;;;-1.92;87.27;96430.07;106515;1275;26635;-76
2023/02/28 05:46:40;;;;;;;46.10;22.60;;;;;;;-1.77;86.71;96430.86;106685;1275;25227;-76
2023/02/28 05:49:09;;;;;;;40.10;22.70;;;;;;;-1.64;86.39;96429.51;106652;1275;24194;-76
2023/02/28 05:51:39;;;;;;;37.90;20.70;;;;;;;-1.42;86.36;96423.66;106663;1275;25322;-76
2023/02/28 05:54:08;;;;;;;35.50;21.20;;;;;;;-1.32;85.29;96423.41;106604;1275;22540;-76
2023/02/28 05:56:39;;;;;;;32.80;17.80;;;;;;;-1.27;85.22;96423.58;106654;1275;22556;-76
2023/02/28 05:59:07;;;;;;;27.50;15.60;;;;;;;-1.21;85.26;96425.39;106621;1275;25470;-79
2023/02/28 06:01:37;;;;;;;25.20;14.10;;;;;;;-1.12;85.31;96427.13;106593;1275;25365;-77
2023/02/28 06:04:07;;;;;;;21.80;12.00;;;;;;;-1.06;84.81;96429.95;106690;1275;22523;-78
2023/02/28 06:06:48;;;;;;;19.20;11.00;;;;;;;-1.07;84.77;96438.52;106605;1275;25287;-82
2023/02/28 06:09:17;;;;;;;19.50;10.40;;;;;;;-1.16;84.14;96437.83;106589;1275;25343;-76
2023/02/28 06:11:46;;;;;;;22.20;12.90;;;;;;;-1.25;83.70;96440.92;106728;1275;23174;-75
2023/02/28 06:14:17;;;;;;;41.00;22.30;;;;;;;-1.29;84.12;96445.61;106624;1275;22523;-83
2023/02/28 06:16:45;;;;;;;34.90;20.00;;;;;;;-1.24;84.32;96448.73;106643;1275;25256;-81
2023/02/28 06:19:15;;;;;;;43.40;22.90;;;;;;;-1.25;84.01;96450.79;106610;1264;22730;-76
2023/02/28 06:21:43;;;;;;;39.20;20.70;;;;;;;-1.25;84.14;96454.20;106697;1275;25463;-80
2023/02/28 06:24:11;;;;;;;35.10;17.70;;;;;;;-1.22;84.21;96454.16;106643;1275;25335;-75
2023/02/28 06:26:39;;;;;;;47.50;23.00;;;;;;;-1.15;84.43;96455.48;106557;1275;22548;-76
2023/02/28 06:29:08;;;;;;;37.40;18.80;;;;;;;-1.11;84.12;96461.16;106611;1275;22523;-78
2023/02/28 06:31:38;;;;;;;62.10;32.60;;;;;;;-1.06;83.95;96460.84;106695;1275;22520;-78
2023/02/28 06:34:06;;;;;;;54.00;31.10;;;;;;;-0.96;83.89;96461.25;106621;1268;24273;-80
2023/02/28 06:36:34;;;;;;;34.00;18.40;;;;;;;-0.89;83.28;96467.59;106583;1270;22553;-82
2023/02/28 06:39:02;;;;;;;21.20;11.80;;;;;;;-0.76;83.70;96465.48;106439;1269;24378;-78
2023/02/28 06:41:31;;;;;;;16.80;10.10;;;;;;;-0.66;83.18;96462.44;106666;1275;25592;-80
2023/02/28 06:44:18;;;;;;;16.60;9.40;;;;;;;-0.58;82.57;96459.77;106742;1269;22580;-80
2023/02/28 06:46:48;;;;;;;17.10;9.70;;;;;;;-0.47;82.33;96453.64;106762;1272;24251;-77
2023/02/28 06:49:16;;;;;;;17.10;9.00;;;;;;;-0.32;81.98;96454.19;106553;1271;25534;-77
2023/02/28 06:51:45;;;;;;;38.10;20.20;;;;;;;-0.12;81.69;96455.95;106959;1270;25332;-74
2023/02/28 06:54:13;;;;;;;20.70;11.40;;;;;;;0.13;80.61;96453.56;106438;1270;24455;-83
2023/02/28 06:56:41;;;;;;;21.40;11.30;;;;;;;0.39;80.78;96455.01;106884;1270;22551;-79
2023/02/28 06:59:10;;;;;;;19.00;9.90;;;;;;;0.63;80.37;96455.82;106472;1270;22540;-84
2023/02/28 07:01:39;;;;;;;15.30;9.40;;;;;;;0.84;79.09;96457.54;106770;1275;22524;-77
2023/02/28 07:04:07;;;;;;;16.10;9.80;;;;;;;0.93;78.75;96455.58;106789;1269;22533;-79
2023/02/28 07:06:35;;;;;;;13.10;7.70;;;;;;;0.95;78.44;96455.45;106738;1276;22620;-81
2023/02/28 07:09:05;;;;;;;29.10;20.20;;;;;;;0.92;78.00;96459.36;107102;1276;25236;-85
2023/02/28 07:11:33;;;;;;;18.20;12.00;;;;;;;0.85;77.19;96468.98;106700;1276;24279;-83
2023/02/28 07:14:01;;;;;;;16.20;10.50;;;;;;;0.73;76.53;96473.63;106698;1276;22532;-83
2023/02/28 07:16:29;;;;;;;72.20;44.70;;;;;;;0.70;77.58;96473.71;106541;1276;25318;-83
2023/02/28 07:18:57;;;;;;;291.10;178.20;;;;;;;0.68;77.82;96478.15;106648;1270;22617;-78
2023/02/28 07:21:25;;;;;;;61.00;37.00;;;;;;;0.62;77.30;96472.56;106745;1273;22581;-81
2023/02/28 07:23:56;;;;;;;34.30;20.80;;;;;;;0.47;77.45;96467.56;106744;1275;22804;-84
2023/02/28 07:26:24;;;;;;;27.40;17.20;;;;;;;0.35;78.15;96463.32;106799;1273;24353;-85
2023/02/28 07:28:53;;;;;;;17.80;9.90;;;;;;;0.34;78.05;96464.02;106767;1273;25281;-82
2023/02/28 07:31:22;;;;;;;16.70;9.10;;;;;;;0.42;78.30;96461.84;106918;1276;22537;-83
2023/02/28 07:33:50;;;;;;;19.40;12.40;;;;;;;0.50;77.97;96471.30;106980;1272;25402;-77
2023/02/28 07:36:18;;;;;;;16.30;10.50;;;;;;;0.63;78.66;96470.02;106899;1276;24231;-78
2023/02/28 07:38:49;;;;;;;35.00;21.70;;;;;;;0.81;78.17;96466.61;106838;1276;22549;-78
2023/02/28 07:41:20;;;;;;;14.90;8.60;;;;;;;0.91;77.21;96463.66;106672;1276;25303;-77
2023/02/28 07:43:48;;;;;;;19.00;10.90;;;;;;;0.96;75.86;96466.59;106733;1275;22534;-77
2023/02/28 07:46:18;;;;;;;17.60;12.00;;;;;;;1.01;76.20;96475.05;106697;1263;23463;-80
2023/02/28 07:48:47;;;;;;;16.20;9.80;;;;;;;1.15;76.49;96478.98;107096;1273;22541;-80
2023/02/28 07:51:15;;;;;;;21.50;12.70;;;;;;;1.35;75.90;96474.39;106770;1273;22565;-80
2023/02/28 07:53:43;;;;;;;20.10;12.20;;;;;;;1.40;75.44;96478.89;106882;1273;22739;-82
2023/02/28 07:56:11;;;;;;;16.70;10.00;;;;;;;1.48;75.31;96474.95;106706;1276;25276;-69
2023/02/28 07:58:39;;;;;;;18.70;10.80;;;;;;;1.49;75.22;96479.34;107014;1276;22594;-77
2023/02/28 08:01:09;;;;;;;16.20;9.70;;;;;;;1.57;75.46;96479.94;106803;1276;24113;-76
2023/02/28 08:03:39;;;;;;;20.60;11.20;;;;;;;1.55;74.93;96479.19;106707;1275;22546;-74
2023/02/28 08:06:15;;;;;;;18.80;9.90;;;;;;;1.59;74.93;96473.05;107014;1275;24199;-70
2023/02/28 08:08:44;;;;;;;19.80;10.70;;;;;;;1.57;74.21;96468.84;106793;1276;22519;-67
2023/02/28 08:11:12;;;;;;;18.50;10.50;;;;;;;1.62;74.42;96474.20;106680;1275;24187;-76
2023/02/28 08:13:42;;;;;;;16.10;9.70;;;;;;;1.73;74.75;96476.60;106676;1275;25262;-70
2023/02/28 08:16:14;;;;;;;17.30;9.70;;;;;;;1.85;74.42;96483.36;106655;1276;22569;-70
2023/02/28 08:18:42;;;;;;;16.90;9.20;;;;;;;1.89;74.30;96487.30;106680;1275;24216;-73
2023/02/28 08:21:11;;;;;;;27.10;16.80;;;;;;;1.89;74.18;96488.01;106592;1275;25237;-74
2023/02/28 08:23:39;;;;;;;53.40;39.60;;;;;;;1.85;74.10;96481.98;106688;1275;22535;-78
2023/02/28 08:26:08;;;;;;;25.40;16.60;;;;;;;1.70;73.74;96485.71;106616;1275;25987;-75
2023/02/28 08:28:36;;;;;;;27.50;17.00;;;;;;;1.63;74.17;96483.24;106715;1264;25234;-74
2023/02/28 08:31:13;;;;;;;18.80;10.90;;;;;;;1.62;74.20;96491.53;106682;1275;22840;-74
2023/02/28 08:33:42;;;;;;;19.60;10.70;;;;;;;1.60;74.47;96499.09;106834;1275;22522;-75
2023/02/28 08:36:11;;;;;;;22.60;14.20;;;;;;;1.55;74.62;96497.39;106643;1275;22537;-73
2023/02/28 08:38:39;;;;;;;30.40;21.20;;;;;;;1.54;75.11;96507.58;106651;1275;22647;-76
2023/02/28 08:41:10;;;;;;;20.70;12.40;;;;;;;1.58;75.22;96509.44;106693;1275;23306;-71
2023/02/28 08:43:40;;;;;;;21.80;14.40;;;;;;;1.54;74.82;96507.58;106613;1275;25195;-73
2023/02/28 08:46:12;;;;;;;29.80;22.20;;;;;;;1.53;74.94;96512.93;106683;1275;22487;-74
2023/02/28 08:48:41;;;;;;;19.40;11.20;;;;;;;1.48;74.98;96514.35;106709;1275;22491;-71
2023/02/28 08:51:13;;;;;;;21.00;11.80;;;;;;;1.47;75.16;96512.05;106720;1275;24231;-78
2023/02/28 08:53:41;;;;;;;19.20;10.50;;;;;;;1.55;75.18;96508.98;106751;1275;24248;-74
2023/02/28 08:56:13;;;;;;;17.50;10.20;;;;;;;1.59;75.02;96509.46;106633;1275;22527;-73
2023/02/28 08:58:41;;;;;;;20.20;11.20;;;;;;;1.67;75.28;96509.21;106657;1275;25479;-74
2023/02/28 09:01:13;;;;;;;19.70;11.20;;;;;;;1.76;75.03;96515.89;106666;1253;23008;-73
2023/02/28 09:03:42;;;;;;;20.60;11.10;;;;;;;1.80;74.41;96508.38;106643;1275;22588;-74
2023/02/28 09:06:11;;;;;;;20.00;11.00;;;;;;;1.80;74.32;96510.97;106665;1275;22666;-78
2023/02/28 09:08:41;;;;;;;18.30;10.20;;;;;;;1.79;74.06;96516.30;106723;1275;22895;-81
2023/02/28 09:11:10;;;;;;;20.10;11.20;;;;;;;1.76;74.53;96519.70;106675;1275;26625;-76
2023/02/28 09:13:39;;;;;;;22.40;12.00;;;;;;;1.85;74.86;96517.90;106696;1275;22550;-76
2023/02/28 09:16:10;;;;;;;21.00;12.50;;;;;;;1.84;74.38;96523.24;106580;1275;22537;-80
2023/02/28 09:18:39;;;;;;;23.00;13.10;;;;;;;1.86;74.40;96525.88;106576;1275;23147;-78
2023/02/28 09:21:11;;;;;;;26.20;14.30;;;;;;;1.88;74.53;96525.96;106801;1275;25250;-77
2023/02/28 09:23:41;;;;;;;19.70;12.30;;;;;;;1.89;74.75;96523.05;106603;1275;23891;-77
2023/02/28 09:26:24;;;;;;;23.10;12.90;;;;;;;1.90;74.54;96520.48;106627;1275;24385;-73
2023/02/28 09:28:54;;;;;;;22.10;11.90;;;;;;;1.86;74.53;96522.10;106683;1275;22523;-75
2023/02/28 09:31:25;;;;;;;21.60;12.60;;;;;;;1.87;74.84;96525.58;106506;1275;24123;-74
2023/02/28 09:33:56;;;;;;;24.30;14.10;;;;;;;1.87;74.76;96526.64;106693;1275;25379;-77
2023/02/28 09:36:26;;;;;;;22.40;12.30;;;;;;;1.85;74.75;96530.56;106712;1275;25382;-75
2023/02/28 09:39:12;;;;;;;19.40;11.40;;;;;;;1.86;74.90;96530.59;106623;1275;22523;-75
2023/02/28 09:41:49;;;;;;;55.50;30.30;;;;;;;1.85;74.51;96530.56;106648;1275;24274;-79
2023/02/28 09:44:41;;;;;;;36.10;20.10;;;;;;;1.90;74.68;96527.58;106524;1275;22539;-83
2023/02/28 09:47:21;;;;;;;20.00;12.00;;;;;;;2.03;74.87;96530.73;106778;1275;24270;-75
2023/02/28 09:49:50;;;;;;;23.80;12.50;;;;;;;2.10;74.36;96525.73;106655;1275;26496;-79
2023/02/28 09:52:23;;;;;;;17.60;10.00;;;;;;;2.13;74.20;96521.83;106705;1275;22539;-76
2023/02/28 09:54:52;;;;;;;19.70;10.80;;;;;;;2.13;74.11;96512.83;106567;1275;22534;-74
2023/02/28 09:57:39;;;;;;;21.20;12.10;;;;;;;2.21;74.79;96514.78;106531;1275;25457;-74
2023/02/28 10:00:17;;;;;;;20.40;11.30;;;;;;;2.41;74.94;96516.90;106773;1275;25397;-77
2023/02/28 10:03:03;;;;;;;21.60;12.30;;;;;;;2.62;74.94;96517.81;106874;1275;25396;-71
2023/02/28 10:05:53;;;;;;;20.00;11.70;;;;;;;2.78;74.27;96515.28;106838;1275;25376;-76
2023/02/28 10:08:27;;;;;;;18.80;10.90;;;;;;;2.85;73.42;96515.64;106680;1275;22810;-73
2023/02/28 10:11:04;;;;;;;19.00;11.10;;;;;;;2.88;73.10;96512.92;106557;1275;22585;-72
2023/02/28 10:13:41;;;;;;;20.40;12.20;;;;;;;3.02;73.23;96513.63;106564;1266;22519;-71
2023/02/28 10:16:21;;;;;;;22.50;12.80;;;;;;;3.18;73.01;96515.26;106502;1264;22527;-72
2023/02/28 10:19:04;;;;;;;19.50;11.30;;;;;;;3.33;72.55;96512.66;106635;1275;25378;-72
2023/02/28 10:21:41;;;;;;;21.30;11.70;;;;;;;3.41;72.43;96510.60;106705;1275;24406;-73
2023/02/28 10:24:32;;;;;;;22.40;12.70;;;;;;;3.52;72.18;96511.36;106682;1276;25329;-73
2023/02/28 10:27:31;;;;;;;20.40;12.00;;;;;;;3.51;71.48;96508.04;106780;1272;23049;-71
2023/02/28 10:30:01;;;;;;;20.00;11.90;;;;;;;3.49;71.49;96510.27;106506;1275;24212;-73
2023/02/28 10:32:35;;;;;;;16.10;10.20;;;;;;;3.44;71.47;96509.29;106785;1276;22524;-73
2023/02/28 10:35:13;;;;;;;20.60;12.90;;;;;;;3.46;71.68;96512.80;106565;1276;22570;-72
2023/02/28 10:37:45;;;;;;;21.40;12.70;;;;;;;3.49;71.49;96508.34;106586;1276;24424;-72
2023/02/28 10:40:19;;;;;;;18.40;11.60;;;;;;;3.53;71.65;96507.21;106604;1275;22519;-73
2023/02/28 10:43:16;;;;;;;21.60;12.30;;;;;;;3.60;71.69;96507.05;106965;1276;25179;-73
2023/02/28 10:45:54;;;;;;;21.00;11.70;;;;;;;3.65;71.48;96503.85;106659;1275;25458;-73
2023/02/28 10:48:22;;;;;;;20.00;12.10;;;;;;;3.65;71.61;96499.67;106562;1276;25600;-72
2023/02/28 10:50:54;;;;;;;22.40;12.00;;;;;;;3.67;71.73;96498.69;106408;1276;22527;-72
2023/02/28 10:53:25;;;;;;;27.00;14.60;;;;;;;3.74;71.81;96499.53;106559;1276;22635;-72
2023/02/28 10:56:18;;;;;;;25.90;15.20;;;;;;;3.69;71.59;96491.25;106602;1275;22660;-72
2023/02/28 10:58:59;;;;;;;26.80;15.00;;;;;;;3.73;71.09;96481.59;106473;1276;24234;-73
2023/02/28 11:01:41;;;;;;;30.20;17.80;;;;;;;3.78;71.31;96479.43;106548;1276;22546;-73
2023/02/28 11:04:35;;;;;;;29.20;17.60;;;;;;;3.97;71.55;96482.10;106616;1275;24269;-73
2023/02/28 11:07:19;;;;;;;23.10;13.80;;;;;;;4.27;70.94;96478.02;106631;1275;22547;-73
2023/02/28 11:09:53;;;;;;;23.50;13.40;;;;;;;4.57;70.11;96473.89;106535;1275;24110;-73
2023/02/28 11:12:34;;;;;;;22.90;14.00;;;;;;;4.85;69.21;96475.63;106634;1275;22543;-73
2023/02/28 11:15:30;;;;;;;23.10;14.20;;;;;;;5.21;68.70;96464.02;106537;1276;22530;-73
2023/02/28 11:18:22;;;;;;;21.10;13.40;;;;;;;5.52;67.56;96455.26;106573;1275;22535;-73
2023/02/28 11:20:56;;;;;;;23.80;13.60;;;;;;;5.82;66.33;96453.59;106823;1276;22913;-73
2023/02/28 11:23:27;;;;;;;19.20;12.80;;;;;;;5.95;65.35;96455.00;106569;1276;22533;-73
2023/02/28 11:25:59;;;;;;;21.20;13.60;;;;;;;6.15;64.70;96448.63;106564;1276;24234;-73
2023/02/28 11:28:33;;;;;;;20.40;13.10;;;;;;;6.25;63.96;96450.49;106792;1276;24075;-73
2023/02/28 11:31:03;;;;;;;21.30;13.30;;;;;;;6.25;63.65;96452.77;106591;1275;22527;-73
2023/02/28 11:33:44;;;;;;;19.20;12.50;;;;;;;6.32;63.48;96453.20;106608;1275;22649;-73
2023/02/28 11:36:17;;;;;;;19.80;12.60;;;;;;;6.26;63.00;96449.11;106559;1276;22612;-73
2023/02/28 11:38:49;;;;;;;20.30;12.10;;;;;;;6.16;63.45;96454.04;106544;1275;22572;-73
2023/02/28 11:41:58;;;;;;;21.20;14.40;;;;;;;6.16;63.76;96449.68;106615;1275;22668;-73
2023/02/28 11:45:14;;;;;;;18.90;11.90;;;;;;;6.22;63.81;96445.39;106813;1275;25253;-73